.
WxDataArchive / Data Records for 2010-03-13
2010-03-12 March 2010 2010-03-14

Data Records for Saturday, 13 March 2010

Time	Temp	Chill	HIndex	Humid	Dewpt	 Wind 	HiWind	WindDir	Rain 	Barom 
-----	----	-----	------	-----	-----	------	------	-------	-----	----- 
00:00	50.1	50.1	50.1	94	48.4	2	5	112	0.02	29.496 
00:05	49.9	49.9	49.9	94	48.2	2	5	112	0.01	29.496 
00:10	49.8	48.6	49.8	94	48.1	4	10	90	0.01	29.496 
00:15	49.5	49.5	49.5	94	47.8	2	6	90	0.00	29.481 
00:20	49.5	49.5	49.5	94	47.8	2	5	112	0.01	29.481 
00:25	49.4	49.4	49.4	94	47.7	3	9	112	0.00	29.481 
00:30	49.2	49.2	49.2	94	47.5	2	5	112	0.00	29.481 
00:35	49.1	49.1	49.1	95	47.7	2	5	90	0.00	29.481 
00:40	48.9	48.9	48.9	95	47.5	3	11	90	0.00	29.481 
00:45	48.8	48.8	48.8	95	47.4	3	10	112	0.00	29.475 
00:50	48.8	48.8	48.8	95	47.4	3	6	90	0.00	29.475 
00:55	48.6	48.6	48.6	95	47.2	3	7	90	0.00	29.475 
01:00	48.5	47.1	48.5	95	47.1	4	9	90	0.00	29.479 
01:05	48.5	48.5	48.5	95	47.1	3	10	90	0.00	29.479 
01:10	48.5	48.5	48.5	95	47.1	2	5	90	0.00	29.479 
01:15	48.3	48.3	48.3	95	46.9	3	9	90	0.00	29.481 
01:20	48.2	48.2	48.2	95	46.8	3	9	90	0.01	29.481 
01:25	48.2	48.2	48.2	95	46.8	2	4	90	0.00	29.481 
01:30	48.2	48.2	48.2	95	46.8	3	6	90	0.01	29.481 
01:35	48.0	48.0	48.0	95	46.6	3	6	90	0.00	29.481 
01:40	48.0	48.0	48.0	95	46.6	1	5	112	0.01	29.481 
01:45	47.9	47.9	47.9	95	46.5	1	4	90	0.00	29.469 
01:50	47.9	47.9	47.9	95	46.5	2	5	112	0.00	29.469 
01:55	47.9	47.9	47.9	95	46.5	2	9	90	0.01	29.469 
02:00	47.9	47.9	47.9	96	46.8	1	4	112	0.00	29.471 
02:05	47.9	47.9	47.9	96	46.8	2	9	112	0.00	29.471 
02:10	47.7	47.7	47.7	96	46.6	2	5	112	0.00	29.471 
02:15	47.7	47.7	47.7	96	46.6	1	8	112	0.01	29.474 
02:20	47.7	47.7	47.7	96	46.6	2	5	90	0.00	29.474 
02:25	47.7	47.7	47.7	96	46.6	2	5	112	0.00	29.474 
02:30	47.6	47.6	47.6	96	46.5	2	4	112	0.00	29.468 
02:35	47.6	47.6	47.6	96	46.5	2	5	112	0.00	29.468 
02:40	47.6	47.6	47.6	96	46.5	2	6	112	0.00	29.468 
02:45	47.6	47.6	47.6	96	46.5	2	4	112	0.00	29.467 
02:50	47.6	47.6	47.6	96	46.5	2	4	90	0.00	29.467 
02:55	47.6	47.6	47.6	96	46.5	2	7	112	0.00	29.467 
03:00	47.6	47.6	47.6	96	46.5	2	6	112	0.00	29.460 
03:05	47.6	47.6	47.6	96	46.5	2	5	112	0.00	29.460 
03:10	47.6	47.6	47.6	96	46.5	3	6	90	0.01	29.460 
03:15	47.6	47.6	47.6	96	46.5	3	6	112	0.00	29.455 
03:20	47.6	47.6	47.6	96	46.5	2	6	112	0.00	29.455 
03:25	47.6	47.6	47.6	96	46.5	2	4	112	0.00	29.455 
03:30	47.6	47.6	47.6	96	46.5	3	7	90	0.01	29.452 
03:35	47.6	47.6	47.6	96	46.5	2	7	90	0.00	29.452 
03:40	47.6	47.6	47.6	96	46.5	3	6	90	0.00	29.452 
03:45	47.6	47.6	47.6	96	46.5	1	5	112	0.01	29.441 
03:50	47.7	47.7	47.7	96	46.6	2	9	112	0.00	29.441 
03:55	47.7	47.7	47.7	96	46.6	3	8	90	0.00	29.441 
04:00	47.7	46.2	47.7	96	46.6	4	9	90	0.01	29.446 
04:05	47.7	46.2	47.7	96	46.6	4	8	90	0.00	29.446 
04:10	47.7	47.7	47.7	96	46.6	3	7	90	0.00	29.446 
04:15	47.7	47.7	47.7	96	46.6	2	5	90	0.00	29.441 
04:20	47.9	47.9	47.9	96	46.8	2	7	90	0.00	29.441 
04:25	47.9	47.9	47.9	96	46.8	2	9	112	0.00	29.441 
04:30	48.0	48.0	48.0	96	46.9	1	4	112	0.01	29.437 
04:35	48.0	48.0	48.0	96	46.9	2	6	112	0.00	29.437 
04:40	47.9	47.9	47.9	96	46.8	2	6	112	0.00	29.437 
04:45	47.9	47.9	47.9	96	46.8	2	6	112	0.00	29.435 
04:50	47.9	47.9	47.9	96	46.8	2	6	112	0.00	29.435 
04:55	47.9	47.9	47.9	96	46.8	0	3	90	0.00	29.435 
05:00	47.7	47.7	47.7	96	46.6	2	5	90	0.00	29.442 
05:05	47.7	47.7	47.7	96	46.6	2	8	90	0.00	29.442 
05:10	47.6	47.6	47.6	96	46.5	1	5	112	0.00	29.442 
05:15	47.4	47.4	47.4	96	46.3	1	5	112	0.00	29.443 
05:20	47.4	47.4	47.4	96	46.3	2	6	112	0.00	29.443 
05:25	47.3	47.3	47.3	96	46.2	2	5	112	0.00	29.443 
05:30	47.3	47.3	47.3	96	46.2	2	6	112	0.00	29.446 
05:35	47.1	47.1	47.1	96	46.0	1	5	112	0.00	29.446 
05:40	47.1	47.1	47.1	96	46.0	2	4	90	0.00	29.446 
05:45	47.1	47.1	47.1	96	46.0	2	5	112	0.00	29.447 
05:50	47.0	47.0	47.0	96	45.9	2	6	90	0.00	29.447 
05:55	47.0	47.0	47.0	96	45.9	3	6	90	0.00	29.447 
06:00	46.8	46.8	46.8	96	45.7	2	7	90	0.01	29.453 
06:05	46.8	46.8	46.8	97	46.0	2	4	112	0.00	29.453 
06:10	46.7	46.7	46.7	97	45.9	2	6	112	0.00	29.453 
06:15	46.7	46.7	46.7	97	45.9	2	9	135	0.00	29.456 
06:20	46.7	46.7	46.7	97	45.9	2	9	135	0.00	29.456 
06:25	46.5	46.5	46.5	97	45.7	3	6	90	0.00	29.456 
06:30	46.7	46.7	46.7	97	45.9	3	7	90	0.00	29.456 
06:35	46.7	46.7	46.7	97	45.9	2	6	135	0.01	29.456 
06:40	46.7	46.7	46.7	97	45.9	2	6	112	0.00	29.456 
06:45	46.7	46.7	46.7	97	45.9	2	5	112	0.00	29.458 
06:50	46.7	46.7	46.7	97	45.9	1	3	112	0.01	29.458 
06:55	46.7	46.7	46.7	97	45.9	2	5	112	0.00	29.458 
07:00	46.5	46.5	46.5	97	45.7	2	5	112	0.01	29.463 
07:05	46.5	46.5	46.5	97	45.7	2	7	112	0.00	29.463 
07:10	46.5	46.5	46.5	97	45.7	2	8	90	0.00	29.463 
07:15	46.4	46.4	46.4	97	45.6	3	7	112	0.01	29.466 
07:20	46.4	46.4	46.4	97	45.6	2	10	90	0.00	29.466 
07:25	46.4	44.7	46.4	97	45.6	4	11	112	0.00	29.466 
07:30	46.2	44.5	46.2	97	45.4	4	11	90	0.01	29.469 
07:35	46.2	43.8	46.2	97	45.4	5	11	112	0.00	29.469 
07:40	46.2	46.2	46.2	97	45.4	3	10	112	0.00	29.469 
07:45	46.1	44.4	46.1	97	45.3	4	12	112	0.01	29.471 
07:50	46.1	46.1	46.1	97	45.3	2	7	112	0.00	29.471 
07:55	46.0	46.0	46.0	97	45.2	2	6	112	0.00	29.471 
08:00	46.0	46.0	46.0	97	45.2	3	7	112	0.01	29.474 
08:05	45.8	44.0	45.8	97	45.0	4	11	112	0.00	29.474 
08:10	45.8	45.8	45.8	97	45.0	3	11	112	0.01	29.474 
08:15	45.8	45.8	45.8	97	45.0	3	10	90	0.00	29.476 
08:20	46.0	44.2	46.0	97	45.2	4	12	90	0.00	29.476 
08:25	46.0	46.0	46.0	97	45.2	3	7	112	0.01	29.476 
08:30	46.0	43.5	46.0	97	45.2	5	11	90	0.00	29.472 
08:35	45.8	45.8	45.8	97	45.0	3	9	112	0.00	29.472 
08:40	45.8	45.8	45.8	97	45.0	3	10	112	0.01	29.472 
08:45	45.8	45.8	45.8	97	45.0	3	10	112	0.00	29.473 
08:50	45.8	43.3	45.8	97	45.0	5	12	112	0.00	29.473 
08:55	46.0	44.2	46.0	97	45.2	4	16	112	0.00	29.473 
09:00	46.0	43.5	46.0	97	45.2	5	14	90	0.01	29.474 
09:05	46.1	42.5	46.1	97	45.3	7	15	112	0.00	29.474 
09:10	46.1	44.4	46.1	97	45.3	4	11	112	0.00	29.474 
09:15	46.1	44.4	46.1	97	45.3	4	10	112	0.01	29.471 
09:20	46.1	46.1	46.1	97	45.3	3	9	112	0.00	29.471 
09:25	46.1	44.4	46.1	97	45.3	4	14	68	0.00	29.471 
09:30	46.1	46.1	46.1	97	45.3	3	14	68	0.00	29.470 
09:35	46.0	43.5	46.0	96	44.9	5	12	112	0.00	29.470 
09:40	45.8	44.0	45.8	96	44.7	4	11	112	0.01	29.470 
09:45	45.7	43.2	45.7	96	44.6	5	12	112	0.00	29.467 
09:50	45.7	45.7	45.7	96	44.6	3	10	68	0.00	29.467 
09:55	45.5	42.3	45.5	96	44.4	6	17	112	0.00	29.467 
10:00	45.5	43.7	45.5	96	44.4	4	11	112	0.00	29.466 
10:05	45.5	43.7	45.5	96	44.4	4	10	112	0.00	29.466 
10:10	45.5	43.7	45.5	96	44.4	4	11	112	0.00	29.466 
10:15	45.5	42.3	45.5	96	44.4	6	13	112	0.00	29.465 
10:20	45.5	43.7	45.5	96	44.4	4	11	112	0.00	29.465 
10:25	45.5	43.7	45.5	96	44.4	4	10	112	0.00	29.465 
10:30	45.4	42.8	45.4	96	44.3	5	15	112	0.00	29.467 
10:35	45.4	42.2	45.4	96	44.3	6	13	112	0.01	29.467 
10:40	45.4	41.6	45.4	96	44.3	7	15	112	0.00	29.467 
10:45	45.5	41.8	45.5	96	44.4	7	15	112	0.00	29.467 
10:50	45.4	42.2	45.4	96	44.3	6	15	112	0.00	29.467 
10:55	45.2	41.4	45.2	96	44.1	7	18	112	0.01	29.467 
11:00	45.2	45.2	45.2	96	44.1	3	14	112	0.00	29.465 
11:05	45.4	42.8	45.4	96	44.3	5	17	112	0.00	29.465 
11:10	45.2	40.9	45.2	96	44.1	8	16	112	0.00	29.465 
11:15	45.4	45.4	45.4	96	44.3	3	7	112	0.00	29.458 
11:20	45.4	45.4	45.4	96	44.3	3	10	135	0.00	29.458 
11:25	45.1	41.3	45.1	96	44.0	7	15	112	0.00	29.458 
11:30	45.1	43.2	45.1	95	43.8	4	16	112	0.00	29.459 
11:35	44.8	44.8	44.8	95	43.5	3	13	68	0.00	29.459 
11:40	44.8	42.9	44.8	95	43.5	4	13	112	0.00	29.459 
11:45	44.6	41.2	44.6	95	43.3	6	15	135	0.01	29.460 
11:50	44.5	41.1	44.5	95	43.2	6	16	112	0.00	29.460 
11:55	44.3	42.3	44.3	95	43.0	4	12	45	0.00	29.460 
12:00	44.3	42.3	44.3	95	43.0	4	12	112	0.00	29.463 
12:05	44.2	41.4	44.2	95	42.9	5	14	112	0.00	29.463 
12:10	44.1	40.6	44.1	95	42.8	6	15	112	0.01	29.463 
12:15	43.9	39.8	43.9	95	42.6	7	14	112	0.00	29.468 
12:20	44.1	41.3	44.1	95	42.8	5	15	112	0.00	29.468 
12:25	44.1	40.1	44.1	95	42.8	7	17	112	0.01	29.468 
12:30	43.9	41.1	43.9	95	42.6	5	20	112	0.00	29.466 
12:35	43.8	40.9	43.8	95	42.5	5	14	112	0.01	29.466 
12:40	43.5	38.4	43.5	95	42.2	9	21	112	0.00	29.466 
12:45	43.6	39.5	43.6	95	42.3	7	19	112	0.01	29.468 
12:50	43.6	40.0	43.6	95	42.3	6	15	112	0.00	29.468 
12:55	43.5	37.6	43.5	95	42.2	11	21	112	0.01	29.468 
13:00	43.6	39.5	43.6	94	42.0	7	17	112	0.01	29.474 
13:05	43.5	40.6	43.5	94	41.9	5	12	112	0.00	29.474 
13:10	43.2	38.5	43.2	94	41.6	8	23	112	0.01	29.474 
13:15	43.1	38.4	43.1	94	41.5	8	15	112	0.00	29.477 
13:20	43.1	39.5	43.1	94	41.5	6	14	112	0.01	29.477 
13:25	43.1	38.9	43.1	94	41.5	7	14	112	0.01	29.477 
13:30	43.1	40.9	43.1	94	41.5	4	15	112	0.00	29.473 
13:35	43.1	40.1	43.1	94	41.5	5	12	112	0.01	29.473 
13:40	43.1	43.1	43.1	94	41.5	2	9	22	0.01	29.473 
13:45	42.9	39.2	42.9	94	41.3	6	20	112	0.00	29.471 
13:50	42.9	39.2	42.9	94	41.3	6	14	112	0.01	29.471 
13:55	43.1	40.9	43.1	95	41.8	4	11	112	0.01	29.471 
14:00	43.3	41.1	43.3	94	41.7	4	11	112	0.00	29.463 
14:05	43.2	41.0	43.2	94	41.6	4	13	90	0.01	29.463 
14:10	43.1	40.1	43.1	94	41.5	5	12	112	0.00	29.463 
14:15	43.1	40.1	43.1	94	41.5	5	13	112	0.00	29.462 
14:20	43.1	40.1	43.1	94	41.5	5	14	112	0.01	29.462 
14:25	42.9	39.9	42.9	94	41.3	5	16	112	0.00	29.462 
14:30	42.9	39.9	42.9	94	41.3	5	15	90	0.01	29.462 
14:35	43.1	40.9	43.1	94	41.5	4	12	112	0.00	29.462 
14:40	43.1	40.1	43.1	94	41.5	5	15	112	0.00	29.462 
14:45	43.1	43.1	43.1	94	41.5	3	7	45	0.01	29.461 
14:50	43.1	40.1	43.1	94	41.5	5	14	112	0.00	29.461 
14:55	43.1	40.1	43.1	94	41.5	5	12	112	0.00	29.461 
15:00	43.1	39.5	43.1	94	41.5	6	15	90	0.00	29.462 
15:05	43.1	43.1	43.1	94	41.5	3	13	112	0.00	29.462 
15:10	43.2	43.2	43.2	94	41.6	2	7	112	0.00	29.462 
15:15	43.2	43.2	43.2	95	41.9	3	11	45	0.01	29.461 
15:20	43.1	40.9	43.1	94	41.5	4	13	112	0.00	29.461 
15:25	42.9	39.9	42.9	95	41.6	5	14	112	0.00	29.461 
15:30	42.8	38.0	42.8	94	41.2	8	21	112	0.00	29.463 
15:35	42.9	39.9	42.9	95	41.6	5	12	90	0.00	29.463 
15:40	42.9	40.7	42.9	95	41.6	4	12	90	0.00	29.463 
15:45	42.8	39.1	42.8	95	41.5	6	16	112	0.00	29.465 
15:50	42.8	39.8	42.8	95	41.5	5	13	112	0.01	29.465 
15:55	42.6	39.5	42.6	94	41.0	5	15	112	0.00	29.465 
16:00	42.6	39.5	42.6	95	41.3	5	13	112	0.00	29.465 
16:05	42.5	39.4	42.5	95	41.2	5	14	112	0.00	29.465 
16:10	42.3	39.2	42.3	95	41.0	5	15	112	0.00	29.465 
16:15	42.3	39.2	42.3	95	41.0	5	15	112	0.00	29.466 
16:20	42.3	40.0	42.3	94	40.7	4	11	90	0.01	29.466 
16:25	42.2	39.9	42.2	94	40.6	4	10	112	0.00	29.466 
16:30	42.2	39.1	42.2	94	40.6	5	16	90	0.00	29.465 
16:35	42.2	42.2	42.2	94	40.6	3	13	112	0.00	29.465 
16:40	42.1	39.7	42.1	94	40.5	4	14	112	0.00	29.465 
16:45	42.1	42.1	42.1	94	40.5	3	9	135	0.01	29.467 
16:50	42.1	42.1	42.1	94	40.5	3	11	90	0.00	29.467 
16:55	41.9	39.5	41.9	94	40.3	4	10	45	0.00	29.467 
17:00	41.8	39.4	41.8	94	40.2	4	10	112	0.00	29.467 
17:05	41.8	41.8	41.8	94	40.2	3	11	112	0.00	29.467 
17:10	41.8	38.6	41.8	94	40.2	5	13	90	0.01	29.467 
17:15	41.8	41.8	41.8	94	40.2	3	6	112	0.00	29.476 
17:20	41.6	39.2	41.6	94	40.0	4	13	112	0.00	29.476 
17:25	41.5	39.1	41.5	94	39.9	4	15	112	0.00	29.476 
17:30	41.5	41.5	41.5	94	39.9	3	11	112	0.01	29.474 
17:35	41.5	38.2	41.5	94	39.9	5	11	112	0.00	29.474 
17:40	41.3	38.0	41.3	93	39.4	5	14	90	0.00	29.474 
17:45	41.3	38.8	41.3	93	39.4	4	13	112	0.00	29.471 
17:50	41.3	38.0	41.3	93	39.4	5	15	112	0.00	29.471 
17:55	41.3	38.8	41.3	93	39.4	4	11	112	0.00	29.471 
18:00	41.3	38.8	41.3	93	39.4	4	11	112	0.00	29.476 
18:05	41.2	38.7	41.2	93	39.3	4	12	112	0.00	29.476 
18:10	41.2	38.7	41.2	93	39.3	4	10	112	0.00	29.476 
18:15	41.2	37.9	41.2	93	39.3	5	14	90	0.01	29.480 
18:20	41.1	38.6	41.1	93	39.2	4	12	90	0.00	29.480 
18:25	41.1	38.6	41.1	93	39.2	4	13	112	0.00	29.480 
18:30	41.1	37.8	41.1	93	39.2	5	15	112	0.00	29.481 
18:35	40.9	36.8	40.9	93	39.0	6	17	112	0.00	29.481 
18:40	40.9	37.5	40.9	93	39.0	5	11	112	0.01	29.481 
18:45	40.9	37.5	40.9	93	39.0	5	14	112	0.00	29.481 
18:50	40.9	40.9	40.9	93	39.0	3	12	112	0.00	29.481 
18:55	40.9	37.5	40.9	93	39.0	5	14	112	0.00	29.481 
19:00	40.8	38.2	40.8	93	38.9	4	12	112	0.00	29.487 
19:05	40.8	38.2	40.8	93	38.9	4	13	90	0.00	29.487 
19:10	40.6	40.6	40.6	93	38.7	2	7	112	0.00	29.487 
19:15	40.6	38.0	40.6	93	38.7	4	12	112	0.00	29.499 
19:20	40.6	38.0	40.6	93	38.7	4	11	112	0.00	29.499 
19:25	40.6	40.6	40.6	93	38.7	3	12	90	0.00	29.499 
19:30	40.5	37.9	40.5	93	38.6	4	12	90	0.00	29.504 
19:35	40.5	37.1	40.5	93	38.6	5	15	112	0.00	29.504 
19:40	40.3	40.3	40.3	93	38.4	3	14	0	0.00	29.504 
19:45	40.3	36.8	40.3	93	38.4	5	13	112	0.00	29.510 
19:50	40.3	37.7	40.3	93	38.4	4	12	112	0.00	29.510 
19:55	40.2	36.7	40.2	93	38.3	5	12	112	0.00	29.510 
20:00	40.2	40.2	40.2	93	38.3	3	14	112	0.00	29.513 
20:05	40.1	36.6	40.1	93	38.2	5	12	112	0.00	29.513 
20:10	40.1	36.6	40.1	93	38.2	5	14	68	0.00	29.513 
20:15	39.9	36.4	39.9	93	38.0	5	11	90	0.00	29.515 
20:20	39.9	37.2	39.9	93	38.0	4	11	90	0.00	29.515 
20:25	39.9	39.9	39.9	93	38.0	3	10	45	0.00	29.515 
20:30	39.8	37.1	39.8	93	37.9	4	14	112	0.01	29.522 
20:35	39.6	36.0	39.6	93	37.7	5	13	90	0.00	29.522 
20:40	39.6	36.0	39.6	93	37.7	5	14	112	0.00	29.522 
20:45	39.6	39.6	39.6	93	37.7	3	10	112	0.00	29.527 
20:50	39.5	35.9	39.5	93	37.6	5	14	112	0.00	29.527 
20:55	39.5	36.7	39.5	93	37.6	4	15	112	0.00	29.527 
21:00	39.3	34.9	39.3	93	37.4	6	13	112	0.00	29.530 
21:05	39.3	39.3	39.3	93	37.4	3	11	112	0.00	29.530 
21:10	39.3	39.3	39.3	93	37.4	3	10	112	0.01	29.530 
21:15	39.2	35.5	39.2	93	37.3	5	16	112	0.00	29.531 
21:20	39.2	35.5	39.2	93	37.3	5	13	112	0.00	29.531 
21:25	39.1	36.3	39.1	93	37.2	4	13	90	0.00	29.531 
21:30	39.1	36.3	39.1	93	37.2	4	12	90	0.00	29.534 
21:35	39.1	36.3	39.1	93	37.2	4	13	112	0.00	29.534 
21:40	39.1	34.1	39.1	93	37.2	7	16	112	0.00	29.534 
21:45	38.9	36.0	38.9	93	37.1	4	11	112	0.00	29.533 
21:50	38.9	38.9	38.9	93	37.1	3	6	112	0.00	29.533 
21:55	38.9	36.0	38.9	93	37.1	4	13	112	0.00	29.533 
22:00	38.9	36.0	38.9	93	37.1	4	13	90	0.00	29.536 
22:05	38.9	38.9	38.9	93	37.1	3	11	45	0.00	29.536 
22:10	38.8	35.1	38.8	93	37.0	5	15	90	0.00	29.536 
22:15	38.8	34.3	38.8	93	37.0	6	14	112	0.00	29.536 
22:20	38.8	35.1	38.8	93	37.0	5	12	112	0.00	29.536 
22:25	38.8	35.9	38.8	93	37.0	4	14	90	0.00	29.536 
22:30	38.6	34.8	38.6	93	36.8	5	19	112	0.00	29.542 
22:35	38.6	35.7	38.6	93	36.8	4	13	112	0.00	29.542 
22:40	38.6	34.1	38.6	92	36.5	6	13	90	0.00	29.542 
22:45	38.6	34.1	38.6	92	36.5	6	20	90	0.00	29.537 
22:50	38.6	35.7	38.6	92	36.5	4	11	112	0.00	29.537 
22:55	38.6	38.6	38.6	93	36.8	3	12	112	0.00	29.537 
23:00	38.8	35.9	38.8	93	37.0	4	13	112	0.00	29.532 
23:05	38.8	35.9	38.8	93	37.0	4	17	112	0.00	29.532 
23:10	38.8	38.8	38.8	93	37.0	3	9	112	0.00	29.532 
23:15	38.9	38.9	38.9	93	37.1	2	7	112	0.00	29.533 
23:20	38.9	38.9	38.9	93	37.1	3	9	90	0.00	29.533 
23:25	39.1	39.1	39.1	93	37.2	3	7	112	0.00	29.533 
23:30	39.1	39.1	39.1	93	37.2	1	4	45	0.00	29.534 
23:35	39.1	39.1	39.1	93	37.2	2	6	112	0.00	29.534 
23:40	39.2	39.2	39.2	93	37.3	3	12	112	0.01	29.534 
23:45	39.2	39.2	39.2	93	37.3	2	10	112	0.00	29.535 
23:50	39.2	39.2	39.2	93	37.3	3	6	112	0.00	29.535 
23:55	39.2	36.4	39.2	93	37.3	4	10	112	0.00	29.535 

CoCoRaHS
IN-AL-39
A2 Web Hosting
Creative Commons License
GoDaddy
search engine by freefind advanced

loaded 2018-11-16 00:09:09 • last modified 2010-11-18 10:43:29
Privacy PolicyDisclaimer
• wx.awcolley.com is powered by PmWiki v.2002016 •
• all content (unless otherwise noted) © 2018 A W Colley